Portada
METAR-TAF:

METAR-TAF

Aeropuertos :

Dusambé, Tayikistán

Aeropuerto Internacional de Dusambé

latitud: 38-33N, longitud: 068-47E, altitud: 803 m

Observación

El informe se hizo hace 17 minutos, a las 20:30 UTC
Viento 4 kt con dirección variable
Temperatura 26°C
Humedad 37%
Presión 1004 hPa
Visibilidad 10 km o más
Escasas nubes a una altura de 6600 ft

METAR: UTDD 242030Z VRB02MPS 9999 FEW066 26/10 Q1004 R09/D NOSIG RMK QFE685/0914

Hora: 01:47 (20:47 UTC)

Pronóstico

El informe se hizo hace 2 horas y 47 minutos, a las 18:00 UTC
Pronóstico válido del 24 a las 19 UTC al 25 a las 07 UTC
Viento 4 kt con dirección variable
Visibilidad: 6000 m
Escasas nubes a una altura de 6600 ft, Cumulonimbus.
Cielo nuboso a una altura de 10000 ft
Probabilidad 40% :
Temporalmente
del 24 a las 19 UTC al 25 a las 07 UTC
Viento 14 kt con dirección variable
tormenta

TAF: UTDD 241800Z 2419/2507 VRB02MPS 6000 FEW066CB BKN100 PROB40 TEMPO 2419/2507 VRB07MPS TS

Observaciones y pronósticos meteorológicos de más de 4000 aeropuertos (mensajes METAR y TAF).

Los puntos amarillos y rojos representan las estaciones disponibles.

Ponga el ratón en el punto deseado para ver el nombre de la estación.

Haga clic para ver las observaciones y los pronósticos meteorológicos.

Para cambiar el mapa : haga clic en los botones verdes con una cruz de color negro para hacer un zoom, en el botón verde con un guión para alejar o en las flechas verdes para mapas adyacentes.


METAR-TAF: